createdAt,value
2023-05-18T00:02:06.907Z,2.53
2023-05-18T00:04:54.034Z,2.73
2023-05-18T00:07:41.128Z,2.20
2023-05-18T00:10:28.440Z,2.60
2023-05-18T00:13:15.593Z,2.60
2023-05-18T00:16:02.636Z,2.73
2023-05-18T00:18:49.687Z,3.30
2023-05-18T00:21:36.696Z,2.97
2023-05-18T00:24:24.037Z,3.10
2023-05-18T00:27:11.071Z,2.80
2023-05-18T00:29:58.178Z,2.90
2023-05-18T00:32:45.887Z,2.57
2023-05-18T00:35:33.127Z,2.70
2023-05-18T00:38:20.218Z,2.50
2023-05-18T00:41:13.413Z,2.93
2023-05-18T00:44:00.828Z,2.67
2023-05-18T00:46:48.536Z,2.80
2023-05-18T00:49:35.745Z,2.30
2023-05-18T00:52:24.147Z,2.37
2023-05-18T00:55:12.888Z,2.63
2023-05-18T00:58:02.414Z,2.70
2023-05-18T01:00:49.630Z,2.27
2023-05-18T01:03:40.194Z,2.80
2023-05-18T01:06:27.350Z,2.40
2023-05-18T01:09:15.047Z,2.10
2023-05-18T01:12:43.688Z,2.47
2023-05-18T01:15:37.936Z,2.03
2023-05-18T01:18:34.655Z,2.40
2023-05-18T01:21:49.524Z,2.23
2023-05-18T01:24:45.543Z,2.53
2023-05-18T01:27:37.527Z,2.40
2023-05-18T01:30:24.713Z,2.40
2023-05-18T01:33:12.886Z,1.90
2023-05-18T01:35:59.998Z,2.30
2023-05-18T01:38:47.749Z,2.33
2023-05-18T01:41:39.330Z,2.40
2023-05-18T01:44:39.292Z,2.07
2023-05-18T01:47:30.445Z,2.37
2023-05-18T01:50:22.148Z,2.40
2023-05-18T01:53:25.110Z,2.23
2023-05-18T01:56:14.330Z,2.63
2023-05-18T01:59:02.684Z,2.00
2023-05-18T02:01:50.016Z,2.20
2023-05-18T02:04:46.318Z,2.30
2023-05-18T02:07:33.476Z,2.57
2023-05-18T02:10:20.563Z,2.30
2023-05-18T02:13:07.735Z,2.53
2023-05-18T02:15:55.534Z,2.00
2023-05-18T02:18:43.104Z,2.30
2023-05-18T02:21:30.454Z,2.27
2023-05-18T02:24:20.165Z,1.90
2023-05-18T02:27:07.338Z,2.10
2023-05-18T02:29:54.428Z,2.43
2023-05-18T02:32:42.627Z,1.73
2023-05-18T02:35:29.799Z,2.13
2023-05-18T02:38:17.310Z,2.33
2023-05-18T02:41:04.476Z,1.97
2023-05-18T02:43:51.606Z,2.20
2023-05-18T02:46:39.741Z,2.00
2023-05-18T02:49:27.512Z,2.30
2023-05-18T02:52:14.520Z,2.17
2023-05-18T02:55:01.656Z,2.20
2023-05-18T02:58:07.770Z,2.33
2023-05-18T03:01:13.424Z,1.93
2023-05-18T03:04:07.181Z,2.40
2023-05-18T03:06:57.301Z,2.60
2023-05-18T03:09:44.539Z,1.90
2023-05-18T03:12:31.667Z,1.83
2023-05-18T03:15:19.528Z,2.40
2023-05-18T03:18:06.727Z,2.47
2023-05-18T03:20:53.804Z,2.20
2023-05-18T03:23:41.084Z,2.40
2023-05-18T03:26:30.860Z,2.17
2023-05-18T03:29:18.021Z,2.20
2023-05-18T03:32:05.711Z,2.27
2023-05-18T03:34:53.134Z,2.37
2023-05-18T03:37:41.746Z,2.07
2023-05-18T03:40:29.301Z,2.50
2023-05-18T03:43:16.421Z,2.20
2023-05-18T03:46:04.833Z,2.60
2023-05-18T03:48:53.931Z,1.90
2023-05-18T03:51:45.472Z,3.20
2023-05-18T03:54:32.859Z,3.30
2023-05-18T03:57:19.998Z,4.90
2023-05-18T04:00:12.137Z,3.30
2023-05-18T04:03:05.327Z,2.77
2023-05-18T04:05:53.414Z,2.50
2023-05-18T04:08:40.464Z,2.20
2023-05-18T04:11:27.513Z,2.40
2023-05-18T04:14:17.081Z,2.10
2023-05-18T04:17:06.437Z,2.27
2023-05-18T04:19:53.433Z,1.93
2023-05-18T04:22:46.316Z,1.70
2023-05-18T04:25:33.951Z,2.50
2023-05-18T04:28:20.992Z,2.00
2023-05-18T04:31:08.095Z,2.27
2023-05-18T04:33:56.049Z,2.10
2023-05-18T04:36:44.315Z,1.80
2023-05-18T04:39:35.209Z,2.10
2023-05-18T04:42:30.936Z,2.07
2023-05-18T04:45:19.431Z,2.40
2023-05-18T04:48:07.739Z,2.20
2023-05-18T04:50:56.122Z,2.37
2023-05-18T04:53:43.231Z,2.20
2023-05-18T04:56:30.231Z,2.47
2023-05-18T04:59:17.644Z,2.60
2023-05-18T05:02:04.932Z,2.50
2023-05-18T05:04:52.304Z,2.40
2023-05-18T05:07:39.310Z,2.40
2023-05-18T05:10:28.061Z,2.70
2023-05-18T05:13:15.108Z,2.50
2023-05-18T05:16:02.673Z,2.23
2023-05-18T05:18:50.008Z,2.60
2023-05-18T05:21:37.254Z,2.73
2023-05-18T05:24:24.249Z,2.30
2023-05-18T05:27:11.398Z,2.10
2023-05-18T05:29:58.479Z,2.00
2023-05-18T05:32:45.893Z,2.10
2023-05-18T05:35:33.821Z,2.30
2023-05-18T05:38:21.324Z,2.40
2023-05-18T05:41:08.495Z,2.30
2023-05-18T05:43:56.857Z,2.40
2023-05-18T05:46:44.202Z,2.47
2023-05-18T05:49:32.217Z,2.30
2023-05-18T05:52:19.617Z,2.53
2023-05-18T05:55:07.298Z,2.10
2023-05-18T05:57:54.392Z,2.00
2023-05-18T06:00:43.133Z,2.20
2023-05-18T06:03:32.962Z,1.90
2023-05-18T06:06:23.798Z,2.23
2023-05-18T06:09:11.017Z,2.23
2023-05-18T06:11:58.279Z,1.97
2023-05-18T06:14:47.526Z,2.03
2023-05-18T06:17:35.122Z,2.03
2023-05-18T06:20:22.269Z,1.97
2023-05-18T06:23:09.389Z,2.23
2023-05-18T06:26:11.228Z,1.90
2023-05-18T06:29:21.459Z,1.90
2023-05-18T06:32:24.436Z,1.77
2023-05-18T06:35:15.354Z,2.07
2023-05-18T06:38:02.408Z,2.00
2023-05-18T06:40:50.117Z,2.17
2023-05-18T06:43:37.128Z,1.90
2023-05-18T06:46:37.409Z,1.80
2023-05-18T06:49:40.654Z,1.90
2023-05-18T06:52:27.769Z,1.90
2023-05-18T06:55:15.399Z,2.07
2023-05-18T06:58:02.854Z,1.60
2023-05-18T07:00:49.861Z,2.17
2023-05-18T07:03:37.483Z,2.03
2023-05-18T07:06:24.608Z,2.23
2023-05-18T07:09:12.002Z,1.87
2023-05-18T07:11:59.130Z,2.30
2023-05-18T07:14:46.433Z,2.43
2023-05-18T07:17:33.724Z,2.10
2023-05-18T07:20:21.079Z,1.87
2023-05-18T07:23:08.434Z,1.83
2023-05-18T07:25:57.402Z,1.90
2023-05-18T07:28:44.625Z,1.90
2023-05-18T07:31:32.535Z,1.80
2023-05-18T07:34:19.661Z,2.20
2023-05-18T07:37:06.635Z,1.63
2023-05-18T07:39:53.889Z,2.60
2023-05-18T07:42:41.831Z,2.00
2023-05-18T07:45:29.585Z,2.10
2023-05-18T07:48:16.994Z,1.53
2023-05-18T07:51:04.146Z,2.30
2023-05-18T07:53:51.547Z,1.70
2023-05-18T07:56:39.301Z,1.93
2023-05-18T07:59:26.293Z,1.70
2023-05-18T08:02:13.341Z,1.93
2023-05-18T08:05:00.790Z,2.00
2023-05-18T08:07:48.340Z,2.07
2023-05-18T08:10:35.583Z,2.23
2023-05-18T08:13:22.777Z,2.07
2023-05-18T08:16:12.342Z,1.97
2023-05-18T08:18:59.713Z,2.17
2023-05-18T08:21:46.820Z,2.40
2023-05-18T08:24:33.972Z,1.80
2023-05-18T08:27:21.172Z,2.20
2023-05-18T08:30:08.964Z,2.00
2023-05-18T08:32:56.787Z,1.70
2023-05-18T08:35:43.922Z,2.17
2023-05-18T08:38:32.070Z,1.90
2023-05-18T08:41:30.713Z,1.83
2023-05-18T08:44:24.337Z,1.80
2023-05-18T08:47:12.623Z,2.27
2023-05-18T08:50:02.572Z,1.90
2023-05-18T08:52:54.905Z,1.80
2023-05-18T08:55:43.999Z,1.93
2023-05-18T08:58:36.148Z,2.03
2023-05-18T09:01:29.395Z,1.57
2023-05-18T09:04:17.073Z,1.93
2023-05-18T09:07:05.430Z,1.90
2023-05-18T09:09:54.598Z,2.17
2023-05-18T09:12:43.421Z,2.00
2023-05-18T09:15:30.867Z,1.80
2023-05-18T09:18:18.137Z,1.97
2023-05-18T09:21:05.276Z,1.97
2023-05-18T09:23:52.437Z,1.90
2023-05-18T09:26:39.955Z,1.83
2023-05-18T09:29:26.983Z,1.97
2023-05-18T09:32:14.699Z,1.80
2023-05-18T09:35:06.493Z,2.20
2023-05-18T09:37:54.628Z,1.80
2023-05-18T09:40:45.699Z,2.10
2023-05-18T09:43:35.646Z,1.60
2023-05-18T09:46:22.886Z,1.83
2023-05-18T09:49:10.364Z,1.77
2023-05-18T09:51:59.889Z,1.50
2023-05-18T09:54:57.753Z,1.70
2023-05-18T09:57:49.961Z,1.70
2023-05-18T10:01:03.477Z,2.00
2023-05-18T10:03:50.605Z,1.87
2023-05-18T10:06:37.642Z,1.90
2023-05-18T10:09:24.685Z,1.57
2023-05-18T10:12:16.683Z,1.97
2023-05-18T10:15:03.970Z,2.07
2023-05-18T10:17:55.143Z,1.73
2023-05-18T10:20:43.357Z,1.97
2023-05-18T10:23:32.752Z,1.87
2023-05-18T10:26:23.162Z,1.70
2023-05-18T10:29:11.014Z,1.87
2023-05-18T10:32:06.004Z,1.80
2023-05-18T10:34:56.578Z,1.77
2023-05-18T10:37:47.849Z,2.00
2023-05-18T10:40:36.412Z,1.80
2023-05-18T10:43:28.482Z,1.70
2023-05-18T10:46:16.732Z,1.87
2023-05-18T10:49:05.174Z,1.70
2023-05-18T10:51:54.696Z,1.63
2023-05-18T10:54:42.550Z,1.80
2023-05-18T10:57:39.333Z,2.27
2023-05-18T11:00:26.343Z,1.90
2023-05-18T11:03:14.988Z,1.70
2023-05-18T11:06:13.071Z,1.70
2023-05-18T11:09:00.323Z,2.30
2023-05-18T11:11:56.404Z,1.83
2023-05-18T11:14:53.748Z,2.07
2023-05-18T11:17:40.778Z,1.90
2023-05-18T11:20:27.731Z,1.60
2023-05-18T11:23:16.155Z,1.80
2023-05-18T11:26:03.220Z,1.80
2023-05-18T11:28:52.586Z,1.83
2023-05-18T11:32:29.337Z,1.63
2023-05-18T11:35:23.906Z,1.47
2023-05-18T11:38:12.552Z,1.93
2023-05-18T11:41:00.782Z,1.70
2023-05-18T11:43:58.916Z,1.80
2023-05-18T11:46:56.499Z,1.80
2023-05-18T11:49:46.919Z,2.10
2023-05-18T11:52:44.588Z,2.00
2023-05-18T11:55:38.941Z,1.70
2023-05-18T11:58:26.191Z,1.77
2023-05-18T12:01:14.390Z,2.13
2023-05-18T12:04:01.677Z,2.03
2023-05-18T12:06:48.696Z,1.83
2023-05-18T12:09:35.747Z,1.90
2023-05-18T12:12:24.348Z,1.43
2023-05-18T12:15:12.039Z,1.70
2023-05-18T12:17:59.085Z,1.50
2023-05-18T12:20:47.909Z,1.80
2023-05-18T12:23:37.291Z,1.80
2023-05-18T12:26:25.945Z,2.10
2023-05-18T12:29:19.793Z,1.70
2023-05-18T12:32:10.650Z,1.80
2023-05-18T12:34:58.652Z,1.80
2023-05-18T12:37:46.568Z,1.97
2023-05-18T12:40:44.462Z,2.20
2023-05-18T12:43:35.578Z,1.53
2023-05-18T12:46:25.852Z,1.53
2023-05-18T12:49:13.031Z,2.10
2023-05-18T12:52:08.363Z,2.27
2023-05-18T12:55:00.512Z,2.17
2023-05-18T12:58:03.122Z,1.70
2023-05-18T13:00:50.159Z,1.77
2023-05-18T13:03:41.111Z,2.07
2023-05-18T13:06:28.198Z,2.00
2023-05-18T13:09:16.756Z,1.60
2023-05-18T13:12:07.824Z,1.80
2023-05-18T13:14:55.115Z,1.90
2023-05-18T13:18:03.080Z,1.70
2023-05-18T13:20:54.266Z,2.13
2023-05-18T13:23:41.165Z,2.00
2023-05-18T13:26:28.078Z,1.60
2023-05-18T13:29:14.984Z,1.90
2023-05-18T13:32:01.952Z,1.90
2023-05-18T13:34:48.911Z,1.73
2023-05-18T13:37:35.812Z,1.87
2023-05-18T13:40:25.414Z,2.17
2023-05-18T13:43:13.992Z,1.60
2023-05-18T13:46:01.302Z,2.10
2023-05-18T13:48:48.288Z,2.10
2023-05-18T13:51:35.210Z,1.90
2023-05-18T13:54:22.156Z,1.87
2023-05-18T13:57:09.248Z,2.20
2023-05-18T13:59:58.656Z,2.20
2023-05-18T14:02:46.687Z,1.73
2023-05-18T14:05:33.908Z,2.23
2023-05-18T14:08:20.989Z,1.80
2023-05-18T14:11:07.922Z,2.03
2023-05-18T14:13:54.839Z,1.83
2023-05-18T14:16:41.967Z,1.87
2023-05-18T14:19:28.952Z,1.90
2023-05-18T14:22:17.367Z,1.77
2023-05-18T14:25:04.776Z,1.83
2023-05-18T14:27:51.768Z,2.03
2023-05-18T14:30:38.738Z,1.83
2023-05-18T14:33:25.764Z,2.20
2023-05-18T14:36:12.713Z,1.73
2023-05-18T14:38:59.597Z,1.73
2023-05-18T14:41:46.495Z,2.00
2023-05-18T14:44:33.767Z,1.83
2023-05-18T14:47:22.203Z,2.10
2023-05-18T14:50:09.430Z,1.77
2023-05-18T14:52:56.322Z,1.83
2023-05-18T14:55:43.316Z,2.07
2023-05-18T14:58:30.219Z,2.10
2023-05-18T15:01:17.137Z,1.90
2023-05-18T15:04:04.305Z,2.30
2023-05-18T15:06:51.568Z,2.27
2023-05-18T15:09:38.478Z,2.10
2023-05-18T15:12:25.448Z,1.77
2023-05-18T15:15:12.377Z,1.70
2023-05-18T15:17:59.332Z,1.90
2023-05-18T15:20:46.920Z,1.80
2023-05-18T15:23:33.985Z,1.70
2023-05-18T15:26:21.405Z,2.17
2023-05-18T15:29:08.441Z,2.03
2023-05-18T15:31:55.953Z,1.80
2023-05-18T15:34:42.892Z,1.80
2023-05-18T15:37:29.798Z,1.80
2023-05-18T15:40:17.582Z,1.70
2023-05-18T15:43:04.490Z,1.63
2023-05-18T15:45:51.589Z,1.67
2023-05-18T15:48:38.532Z,1.70
2023-05-18T15:51:25.465Z,1.90
2023-05-18T15:54:12.421Z,1.97
2023-05-18T15:56:59.430Z,1.73
2023-05-18T15:59:46.343Z,1.67
2023-05-18T16:02:33.263Z,2.00
2023-05-18T16:05:20.395Z,1.97
2023-05-18T16:08:07.313Z,1.93
2023-05-18T16:10:54.279Z,1.77
2023-05-18T16:13:41.209Z,1.73
2023-05-18T16:16:28.250Z,1.87
2023-05-18T16:19:15.322Z,2.40
2023-05-18T16:22:02.397Z,2.03
2023-05-18T16:24:49.761Z,1.63
2023-05-18T16:27:36.725Z,1.83
2023-05-18T16:30:23.739Z,2.20
2023-05-18T16:33:10.999Z,2.10
2023-05-18T16:35:58.351Z,1.93
2023-05-18T16:38:45.278Z,2.17
2023-05-18T16:41:32.192Z,1.70
2023-05-18T16:44:19.137Z,1.90
2023-05-18T16:47:06.426Z,2.10
2023-05-18T16:49:53.610Z,1.80
2023-05-18T16:52:40.798Z,1.70
2023-05-18T16:55:27.838Z,2.10
2023-05-18T16:58:14.814Z,2.10
2023-05-18T17:01:02.048Z,1.93
2023-05-18T17:03:49.529Z,1.67
2023-05-18T17:06:36.582Z,1.93
2023-05-18T17:09:23.746Z,2.20
2023-05-18T17:12:11.344Z,1.90
2023-05-18T17:14:58.376Z,2.10
2023-05-18T17:17:45.498Z,1.90
2023-05-18T17:20:32.716Z,1.93
2023-05-18T17:23:19.896Z,1.60
2023-05-18T17:26:06.998Z,1.87
2023-05-18T17:28:54.053Z,2.03
2023-05-18T17:31:41.015Z,2.10
2023-05-18T17:34:27.975Z,2.33
2023-05-18T17:37:14.899Z,2.40
2023-05-18T17:40:04.947Z,1.90
2023-05-18T17:42:51.898Z,2.40
2023-05-18T17:45:38.841Z,2.30
2023-05-18T17:48:25.761Z,2.23
2023-05-18T17:51:12.652Z,2.53
2023-05-18T17:53:59.590Z,3.80
2023-05-18T17:56:46.702Z,3.43
2023-05-18T17:59:35.019Z,4.20
2023-05-18T18:02:23.716Z,4.67
2023-05-18T18:05:10.751Z,4.17
2023-05-18T18:07:58.350Z,3.13
2023-05-18T18:10:45.375Z,3.07
2023-05-18T18:13:32.359Z,2.33
2023-05-18T18:16:20.459Z,2.20
2023-05-18T18:19:08.609Z,2.37
2023-05-18T18:21:55.699Z,1.90
2023-05-18T18:24:42.865Z,1.90
2023-05-18T18:27:29.846Z,1.70
2023-05-18T18:30:16.827Z,1.83
2023-05-18T18:33:03.877Z,2.10
2023-05-18T18:35:51.877Z,1.97
2023-05-18T18:38:38.852Z,2.23
2023-05-18T18:41:25.917Z,2.20
2023-05-18T18:44:12.912Z,2.53
2023-05-18T18:46:59.912Z,2.50
2023-05-18T18:49:46.892Z,2.23
2023-05-18T18:52:33.864Z,2.37
2023-05-18T18:55:22.077Z,2.20
2023-05-18T18:58:09.058Z,2.43
2023-05-18T19:00:56.154Z,2.20
2023-05-18T19:03:43.186Z,2.37
2023-05-18T19:06:30.960Z,2.27
2023-05-18T19:09:17.920Z,2.43
2023-05-18T19:12:05.370Z,2.33
2023-05-18T19:14:52.347Z,2.10
2023-05-18T19:17:40.616Z,2.30
2023-05-18T19:20:27.725Z,2.20
2023-05-18T19:23:14.734Z,2.40
2023-05-18T19:26:02.149Z,1.90
2023-05-18T19:28:49.102Z,2.23
2023-05-18T19:31:37.655Z,2.20
2023-05-18T19:34:24.791Z,2.03
2023-05-18T19:37:12.610Z,2.00
2023-05-18T19:39:59.646Z,2.10
2023-05-18T19:42:46.646Z,2.30
2023-05-18T19:45:34.339Z,2.10
2023-05-18T19:48:21.677Z,1.90
2023-05-18T19:51:08.636Z,1.97
2023-05-18T19:53:55.647Z,2.20
2023-05-18T19:56:42.615Z,2.30
2023-05-18T19:59:29.671Z,2.10
2023-05-18T20:02:16.862Z,1.90
2023-05-18T20:05:06.011Z,1.90
2023-05-18T20:07:53.009Z,1.90
2023-05-18T20:10:40.026Z,1.90
2023-05-18T20:13:27.137Z,1.80
2023-05-18T20:16:14.447Z,2.03
2023-05-18T20:19:01.726Z,2.10
2023-05-18T20:21:48.822Z,1.63
2023-05-18T20:24:35.833Z,1.70
2023-05-18T20:27:22.843Z,1.93
2023-05-18T20:30:10.224Z,1.83
2023-05-18T20:32:58.729Z,2.00
2023-05-18T20:35:45.885Z,2.27
2023-05-18T20:38:33.325Z,2.13
2023-05-18T20:41:20.989Z,2.17
2023-05-18T20:44:11.209Z,2.20
2023-05-18T20:47:00.985Z,1.90
2023-05-18T20:49:48.532Z,2.13
2023-05-18T20:52:36.114Z,2.00
2023-05-18T20:55:23.999Z,2.33
2023-05-18T20:58:11.040Z,2.13
2023-05-18T21:00:58.022Z,2.20
2023-05-18T21:03:45.845Z,1.90
2023-05-18T21:06:34.271Z,1.80
2023-05-18T21:09:21.290Z,2.00
2023-05-18T21:12:08.809Z,2.00
2023-05-18T21:14:56.168Z,2.20
2023-05-18T21:17:43.177Z,2.20
2023-05-18T21:20:30.264Z,2.17
2023-05-18T21:23:17.318Z,2.50
2023-05-18T21:26:04.322Z,2.43
2023-05-18T21:28:51.310Z,2.27
2023-05-18T21:31:38.437Z,2.07
2023-05-18T21:34:25.474Z,2.13
2023-05-18T21:37:12.439Z,2.40
2023-05-18T21:39:59.568Z,2.37
2023-05-18T21:42:47.164Z,2.17
2023-05-18T21:45:34.257Z,2.20
2023-05-18T21:48:21.253Z,2.03
2023-05-18T21:51:11.474Z,2.27
2023-05-18T21:53:59.609Z,1.90
2023-05-18T21:56:46.671Z,2.10
2023-05-18T21:59:33.883Z,2.00
2023-05-18T22:02:20.872Z,2.10
2023-05-18T22:05:09.386Z,2.30
2023-05-18T22:07:58.876Z,1.90
2023-05-18T22:10:46.463Z,1.87
2023-05-18T22:13:33.496Z,2.10
2023-05-18T22:16:20.529Z,2.20
2023-05-18T22:19:07.597Z,2.40
2023-05-18T22:21:54.610Z,2.20
2023-05-18T22:24:42.583Z,2.10
2023-05-18T22:27:29.986Z,2.30
2023-05-18T22:30:17.580Z,2.27
2023-05-18T22:33:04.810Z,2.00
2023-05-18T22:35:51.883Z,1.43
2023-05-18T22:38:43.064Z,2.10
2023-05-18T22:41:30.046Z,2.03
2023-05-18T22:44:17.028Z,2.20
2023-05-18T22:47:04.161Z,2.20
2023-05-18T22:49:51.150Z,2.00
2023-05-18T22:52:38.656Z,2.20
2023-05-18T22:55:25.694Z,2.57
2023-05-18T22:58:12.665Z,3.03
2023-05-18T23:00:59.649Z,3.47
2023-05-18T23:03:46.592Z,3.20
2023-05-18T23:06:34.500Z,2.80
2023-05-18T23:09:21.491Z,2.27
2023-05-18T23:12:10.218Z,2.07
2023-05-18T23:14:57.211Z,2.17
2023-05-18T23:17:46.173Z,2.57
2023-05-18T23:20:34.528Z,2.70
2023-05-18T23:23:26.049Z,3.47
2023-05-18T23:26:13.082Z,3.63
2023-05-18T23:29:00.120Z,3.07
2023-05-18T23:31:47.130Z,3.43
2023-05-18T23:34:34.481Z,3.00
2023-05-18T23:37:23.951Z,2.63
2023-05-18T23:40:14.666Z,2.63
2023-05-18T23:43:02.194Z,2.57
2023-05-18T23:45:49.511Z,2.50
2023-05-18T23:48:36.782Z,2.57
2023-05-18T23:51:25.663Z,2.53
2023-05-18T23:54:13.181Z,2.47
2023-05-18T23:57:00.496Z,2.50
2023-05-18T23:59:48.129Z,2.70
